Time;durP1;ratioP1;P1;durP2;ratioP2;P2;SDS_P1;SDS_P2;PMS_P1;PMS_P2;Temp;Humidity;BMP_temperature;BMP_pressure;BME280_temperature;BME280_humidity;BME280_pressure;Samples;Min_cycle;Max_cycle;Signal;HPM_P1;HPM_P2
2021/03/12 00:01:39;;;;;;;11.35;5.92;;;;;;;-2.47;58.23;99709.06;1712314;83;21185;-64
2021/03/12 00:04:07;;;;;;;10.60;6.60;;;;;;;-2.45;57.97;99701.72;1698513;84;21318;-66
2021/03/12 00:06:34;;;;;;;11.53;6.45;;;;;;;-2.44;57.78;99699.38;1695829;84;21350;-64
2021/03/12 00:09:04;;;;;;;16.07;6.72;;;;;;;-2.47;57.70;99670.41;1703356;84;21539;-64
2021/03/12 00:11:34;;;;;;;11.25;5.95;;;;;;;-2.46;57.85;99693.39;1701314;84;21623;-64
2021/03/12 00:14:02;;;;;;;12.10;6.83;;;;;;;-2.50;57.80;99687.61;1692822;83;21335;-64
2021/03/12 00:16:29;;;;;;;13.75;6.67;;;;;;;-2.45;57.51;99681.72;1699373;84;21179;-64
2021/03/12 00:18:57;;;;;;;10.90;6.55;;;;;;;-2.48;57.70;99678.94;1697074;84;21199;-64
2021/03/12 00:21:25;;;;;;;13.32;6.53;;;;;;;-2.47;57.81;99654.41;1702341;83;21203;-65
2021/03/12 00:23:52;;;;;;;11.00;6.75;;;;;;;-2.45;57.91;99661.73;1691284;84;21171;-64
2021/03/12 00:26:20;;;;;;;12.15;6.95;;;;;;;-2.44;57.74;99652.73;1678155;84;21187;-64
2021/03/12 00:28:47;;;;;;;14.73;6.78;;;;;;;-2.45;57.65;99651.90;1670755;84;21498;-64
2021/03/12 00:31:15;;;;;;;11.75;6.58;;;;;;;-2.47;57.34;99645.09;1673962;85;21646;-65
2021/03/12 00:33:43;;;;;;;12.68;7.37;;;;;;;-2.49;57.59;99641.30;1673877;86;21259;-64
2021/03/12 00:36:13;;;;;;;11.00;6.72;;;;;;;-2.49;57.54;99640.47;1658329;85;21195;-63
2021/03/12 00:38:40;;;;;;;11.78;6.50;;;;;;;-2.47;57.76;99645.09;1653304;86;21204;-64
2021/03/12 00:41:08;;;;;;;14.10;7.10;;;;;;;-2.53;57.74;99636.02;1693362;84;21255;-64
2021/03/12 00:43:44;;;;;;;11.85;7.83;;;;;;;-2.47;57.74;99638.42;1751409;79;28262;-63
2021/03/12 00:46:29;;;;;;;12.82;6.97;;;;;;;-2.44;57.19;99629.53;1698376;83;21164;-62
2021/03/12 00:48:56;;;;;;;14.10;6.53;;;;;;;-2.31;57.05;99627.52;1720711;82;21507;-64
2021/03/12 00:51:25;;;;;;;11.97;7.08;;;;;;;-2.33;56.64;99621.03;1708799;83;21165;-63
2021/03/12 00:54:26;;;;;;;12.25;7.10;;;;;;;-2.36;57.05;99612.09;1763178;79;23306;-63
2021/03/12 00:56:55;;;;;;;11.15;6.05;;;;;;;-2.45;56.97;99595.92;1666327;85;21311;-64
2021/03/12 00:59:23;;;;;;;11.55;6.83;;;;;;;-2.45;57.27;99596.42;1675442;85;21250;-64
2021/03/12 01:01:53;;;;;;;11.55;6.17;;;;;;;-2.51;57.50;99590.00;1675646;85;21307;-64
2021/03/12 01:04:22;;;;;;;14.50;7.75;;;;;;;-2.54;57.44;99591.72;1675943;85;21596;-64
2021/03/12 01:06:51;;;;;;;13.62;6.95;;;;;;;-2.55;57.90;99582.89;1644393;87;21200;-64
2021/03/12 01:09:19;;;;;;;12.82;6.33;;;;;;;-2.59;57.63;99565.66;1648560;87;21212;-64
2021/03/12 01:11:46;;;;;;;12.03;7.33;;;;;;;-2.63;57.86;99571.56;1634996;85;21826;-64
2021/03/12 01:14:14;;;;;;;11.28;6.53;;;;;;;-2.61;58.04;99569.01;1659736;85;21192;-64
2021/03/12 01:16:44;;;;;;;11.97;6.55;;;;;;;-2.67;58.07;99564.45;1664393;86;21196;-63
2021/03/12 01:19:11;;;;;;;12.90;7.20;;;;;;;-2.66;58.11;99578.07;1647560;86;21220;-64
2021/03/12 01:21:39;;;;;;;11.00;6.65;;;;;;;-2.68;58.49;99580.12;1664376;86;21675;-64
2021/03/12 01:24:09;;;;;;;13.00;6.20;;;;;;;-2.67;58.10;99585.77;1648455;87;21369;-63
2021/03/12 01:26:39;;;;;;;12.10;7.00;;;;;;;-2.69;58.19;99569.63;1657791;86;21798;-63
2021/03/12 01:29:16;;;;;;;10.98;6.33;;;;;;;-2.70;58.26;99585.33;1796233;79;22394;-64
2021/03/12 01:31:52;;;;;;;11.55;6.15;;;;;;;-2.72;58.31;99588.17;1747374;82;21599;-64
2021/03/12 01:34:21;;;;;;;11.18;6.30;;;;;;;-2.78;58.57;99568.95;1746292;82;21148;-64
2021/03/12 01:36:49;;;;;;;14.98;6.87;;;;;;;-2.78;58.67;99580.12;1723277;82;21164;-65
2021/03/12 01:39:17;;;;;;;11.43;6.53;;;;;;;-2.92;58.76;99544.53;1675531;85;21197;-64
2021/03/12 01:41:46;;;;;;;12.25;6.80;;;;;;;-2.71;58.78;99567.18;1665661;85;21168;-64
2021/03/12 01:46:13;;;;;;;11.33;6.78;;;;;;;-2.68;58.57;99536.15;1821262;77;23102;-65
2021/03/12 01:48:41;;;;;;;13.43;7.17;;;;;;;-2.79;58.54;99519.84;1787471;78;21134;-65
2021/03/12 01:51:12;;;;;;;11.90;6.58;;;;;;;-2.77;58.83;99520.50;1787985;78;21151;-65
2021/03/12 01:53:40;;;;;;;11.08;6.62;;;;;;;-2.77;58.76;99518.66;1762165;78;21140;-65
2021/03/12 01:56:07;;;;;;;10.05;6.08;;;;;;;-2.75;59.08;99535.77;1800010;78;21149;-64
2021/03/12 01:58:56;;;;;;;11.22;6.47;;;;;;;-2.74;58.58;99520.11;1764789;79;23642;-64
2021/03/12 02:01:25;;;;;;;14.80;6.95;;;;;;;-2.88;58.62;99512.52;1716601;83;21484;-64
2021/03/12 02:03:54;;;;;;;12.45;7.33;;;;;;;-2.82;58.85;99511.73;1716513;82;21172;-64
2021/03/12 02:06:31;;;;;;;18.02;10.72;;;;;;;-2.78;58.96;99509.52;1800003;78;28712;-64
2021/03/12 02:08:58;;;;;;;14.00;8.03;;;;;;;-2.56;58.35;99508.48;1772424;80;21157;-64
2021/03/12 02:11:37;;;;;;;12.45;7.55;;;;;;;-2.60;57.74;99504.05;1792081;80;21117;-64
2021/03/12 02:14:14;;;;;;;12.98;7.70;;;;;;;-2.69;58.46;99509.17;1757273;80;21319;-64
2021/03/12 02:16:52;;;;;;;14.93;8.13;;;;;;;-2.75;58.61;99505.96;1777023;80;21534;-64
2021/03/12 02:19:32;;;;;;;17.17;9.45;;;;;;;-2.82;58.62;99498.42;1788529;80;21592;-63
2021/03/12 02:22:00;;;;;;;14.03;7.78;;;;;;;-2.87;58.89;99486.17;1725014;83;21632;-63
2021/03/12 02:24:44;;;;;;;14.25;7.33;;;;;;;-2.89;58.93;99484.22;1687570;84;21756;-63
2021/03/12 02:27:14;;;;;;;13.48;8.03;;;;;;;-2.88;59.02;99491.70;1729673;83;21961;-63
2021/03/12 02:29:51;;;;;;;13.98;8.15;;;;;;;-2.93;59.31;99478.13;1727259;83;21620;-63
2021/03/12 02:32:34;;;;;;;18.82;7.65;;;;;;;-2.92;59.32;99491.77;1695973;83;21161;-64
2021/03/12 02:35:11;;;;;;;19.02;10.00;;;;;;;-2.98;59.31;99487.21;1676854;83;21211;-63
2021/03/12 02:37:39;;;;;;;15.55;7.40;;;;;;;-2.99;59.32;99494.88;1698409;82;21160;-63
2021/03/12 02:40:09;;;;;;;13.20;7.42;;;;;;;-3.05;59.32;99485.82;1736817;82;21200;-64
2021/03/12 02:42:41;;;;;;;15.03;7.87;;;;;;;-3.02;59.10;99477.45;1738555;82;21600;-65
2021/03/12 02:45:12;;;;;;;13.58;7.87;;;;;;;-3.05;59.40;99485.82;1703195;82;21545;-62
2021/03/12 02:47:41;;;;;;;14.20;7.50;;;;;;;-3.08;59.54;99464.88;1700244;83;21153;-63
2021/03/12 02:50:12;;;;;;;14.78;6.62;;;;;;;-3.12;59.67;99458.31;1711947;84;21631;-63
2021/03/12 02:52:42;;;;;;;12.63;7.05;;;;;;;-3.17;59.47;99449.55;1728474;81;21125;-63
2021/03/12 02:55:12;;;;;;;12.20;6.67;;;;;;;-3.19;59.45;99446.23;1755608;81;21212;-63
2021/03/12 02:57:44;;;;;;;11.53;6.78;;;;;;;-3.18;59.41;99452.39;1718864;82;21177;-63
2021/03/12 03:00:14;;;;;;;12.88;7.70;;;;;;;-3.19;59.71;99447.57;1740866;82;21212;-62
2021/03/12 03:03:09;;;;;;;11.20;6.58;;;;;;;-3.14;59.72;99420.38;1777580;79;22938;-63
2021/03/12 03:05:41;;;;;;;12.13;7.12;;;;;;;-3.20;59.55;99429.97;1754899;80;21137;-63
2021/03/12 03:08:30;;;;;;;14.35;6.80;;;;;;;-3.19;59.47;99427.60;1760962;81;21319;-63
2021/03/12 03:11:03;;;;;;;13.43;7.30;;;;;;;-3.21;59.49;99439.47;1719420;83;21165;-64
2021/03/12 03:13:36;;;;;;;12.00;6.70;;;;;;;-3.20;59.35;99430.47;1716451;83;21137;-63
2021/03/12 03:16:05;;;;;;;14.07;7.33;;;;;;;-3.22;59.92;99427.16;1711961;84;21690;-63
2021/03/12 03:18:36;;;;;;;15.03;6.78;;;;;;;-3.24;59.81;99432.70;1713360;84;21179;-63
2021/03/12 03:21:04;;;;;;;12.23;6.62;;;;;;;-3.28;59.78;99453.22;1665719;85;21593;-64
2021/03/12 03:23:39;;;;;;;12.53;6.90;;;;;;;-3.28;59.56;99431.42;1686348;84;21152;-63
2021/03/12 03:26:08;;;;;;;13.75;6.72;;;;;;;-3.30;59.47;99435.30;1640983;86;21137;-64
2021/03/12 03:28:38;;;;;;;11.90;6.92;;;;;;;-3.28;59.66;99430.09;1669793;85;21541;-64
2021/03/12 03:31:05;;;;;;;13.55;7.28;;;;;;;-3.27;59.45;99428.26;1673285;85;21699;-63
2021/03/12 03:33:33;;;;;;;11.43;6.53;;;;;;;-3.31;59.66;99415.01;1657248;86;21249;-63
2021/03/12 03:36:06;;;;;;;12.95;6.90;;;;;;;-3.28;59.40;99410.12;1654147;86;21329;-62
2021/03/12 03:38:33;;;;;;;12.68;6.58;;;;;;;-3.32;59.52;99400.05;1662297;86;21624;-63
2021/03/12 03:41:06;;;;;;;11.80;6.15;;;;;;;-3.33;59.53;99384.58;1650005;86;21189;-64
2021/03/12 03:43:37;;;;;;;13.35;7.35;;;;;;;-3.31;59.38;99385.23;1661845;86;21637;-62
2021/03/12 03:46:07;;;;;;;14.13;7.47;;;;;;;-3.34;59.64;99365.65;1637118;85;21187;-62
2021/03/12 03:48:37;;;;;;;12.43;7.00;;;;;;;-3.37;59.71;99394.48;1658696;86;21180;-63
2021/03/12 03:51:10;;;;;;;12.13;6.83;;;;;;;-3.40;59.93;99381.56;1637722;87;21195;-62
2021/03/12 03:53:40;;;;;;;13.58;7.42;;;;;;;-3.37;59.74;99393.16;1663662;85;21639;-63
2021/03/12 03:56:10;;;;;;;13.68;7.35;;;;;;;-3.36;59.95;99367.66;1682248;85;21157;-63
2021/03/12 03:58:38;;;;;;;11.78;6.62;;;;;;;-3.39;59.85;99393.33;1683380;85;21149;-61
2021/03/12 04:01:06;;;;;;;11.95;6.45;;;;;;;-3.33;60.02;99401.08;1667192;86;21161;-63
2021/03/12 04:03:36;;;;;;;12.13;6.65;;;;;;;-3.37;59.98;99391.83;1666412;86;21651;-62
2021/03/12 04:06:04;;;;;;;13.60;7.60;;;;;;;-3.37;59.96;99379.84;1662913;86;21171;-62
2021/03/12 04:08:32;;;;;;;12.47;7.55;;;;;;;-3.37;60.43;99394.48;1651691;85;21316;-62
2021/03/12 04:11:00;;;;;;;15.68;7.72;;;;;;;-3.38;60.21;99408.80;1681160;85;21624;-63
2021/03/12 04:13:29;;;;;;;12.58;6.55;;;;;;;-3.33;60.11;99417.05;1680978;85;21154;-63
2021/03/12 04:15:57;;;;;;;14.05;6.80;;;;;;;-3.37;60.18;99413.95;1596668;89;21186;-63
2021/03/12 04:18:26;;;;;;;12.80;6.92;;;;;;;-3.34;59.92;99408.73;1650392;86;21229;-63
2021/03/12 04:20:54;;;;;;;12.33;7.20;;;;;;;-3.37;60.28;99405.96;1659969;86;21201;-63
2021/03/12 04:23:22;;;;;;;14.87;7.72;;;;;;;-3.34;60.18;99381.62;1679289;85;21649;-64
2021/03/12 04:25:50;;;;;;;15.48;7.58;;;;;;;-3.37;60.23;99389.99;1648841;85;21162;-65
2021/03/12 04:28:17;;;;;;;12.58;7.12;;;;;;;-3.41;60.18;99403.86;1642606;86;21311;-62
2021/03/12 04:30:45;;;;;;;14.83;8.18;;;;;;;-3.41;60.39;99394.55;1676458;85;21170;-62
2021/03/12 04:33:14;;;;;;;14.20;7.87;;;;;;;-3.61;60.35;99363.73;1655020;85;21194;-61
2021/03/12 04:35:43;;;;;;;14.58;7.78;;;;;;;-3.43;60.41;99396.05;1645247;85;21150;-61
2021/03/12 04:38:13;;;;;;;14.63;7.55;;;;;;;-3.39;60.53;99419.13;1682297;85;21339;-63
2021/03/12 04:40:40;;;;;;;15.18;6.78;;;;;;;-3.38;60.49;99417.61;1653606;85;21214;-64
2021/03/12 04:43:09;;;;;;;12.65;7.30;;;;;;;-3.43;60.59;99396.05;1662066;86;21192;-63
2021/03/12 04:45:37;;;;;;;13.65;7.45;;;;;;;-3.43;60.57;99405.87;1662734;86;21185;-63
2021/03/12 04:48:07;;;;;;;13.93;6.60;;;;;;;-3.43;60.91;99393.39;1641403;86;21248;-64
2021/03/12 04:50:34;;;;;;;15.15;7.87;;;;;;;-3.44;60.76;99400.25;1664504;85;21184;-64
2021/03/12 04:53:09;;;;;;;13.62;7.72;;;;;;;-3.43;60.82;99421.34;1680977;85;21617;-64
2021/03/12 04:55:38;;;;;;;15.90;8.18;;;;;;;-3.44;61.06;99418.38;1682211;85;21327;-63
2021/03/12 04:58:07;;;;;;;16.40;7.80;;;;;;;-3.40;61.17;99419.63;1680947;85;21174;-63
2021/03/12 05:00:36;;;;;;;12.35;7.25;;;;;;;-3.42;61.02;99407.02;1650122;85;21168;-64
2021/03/12 05:03:05;;;;;;;16.97;7.65;;;;;;;-3.38;61.16;99420.27;1681072;85;21672;-64
2021/03/12 05:05:35;;;;;;;17.27;9.28;;;;;;;-3.45;61.29;99423.38;1681456;85;21784;-63
2021/03/12 05:08:05;;;;;;;15.65;7.45;;;;;;;-3.44;61.33;99414.89;1653184;85;21189;-64
2021/03/12 05:10:35;;;;;;;14.85;8.75;;;;;;;-3.47;61.41;99393.98;1634572;85;21244;-63
2021/03/12 05:13:04;;;;;;;17.45;8.58;;;;;;;-3.37;61.57;99415.78;1682962;85;21216;-62
2021/03/12 05:15:37;;;;;;;12.88;7.37;;;;;;;-3.42;61.32;99408.86;1682218;85;21159;-64
2021/03/12 05:18:05;;;;;;;16.35;8.33;;;;;;;-3.43;61.29;99407.20;1674351;86;21301;-63
2021/03/12 05:20:35;;;;;;;12.65;7.65;;;;;;;-3.37;61.64;99421.10;1646479;86;21203;-63
2021/03/12 05:23:02;;;;;;;14.98;8.18;;;;;;;-3.42;61.62;99407.02;1660407;86;21438;-64
2021/03/12 05:25:30;;;;;;;14.10;8.50;;;;;;;-3.47;61.56;99392.66;1662906;86;21181;-64
2021/03/12 05:27:58;;;;;;;16.20;8.73;;;;;;;-3.42;61.74;99409.69;1642002;86;21637;-64
2021/03/12 05:30:33;;;;;;;14.50;8.28;;;;;;;-3.43;61.90;99408.03;1658718;85;21748;-64
2021/03/12 05:33:01;;;;;;;14.33;8.03;;;;;;;-3.40;61.71;99410.30;1680639;85;21150;-63
2021/03/12 05:35:29;;;;;;;15.28;8.38;;;;;;;-3.44;61.59;99382.45;1682397;85;21156;-63
2021/03/12 05:37:56;;;;;;;12.47;8.23;;;;;;;-3.43;61.59;99389.40;1643099;86;21207;-63
2021/03/12 05:40:25;;;;;;;16.50;9.53;;;;;;;-3.40;61.46;99385.56;1660642;86;21366;-63
2021/03/12 05:42:53;;;;;;;14.25;8.35;;;;;;;-3.37;61.49;99403.30;1680935;85;21154;-64
2021/03/12 05:45:21;;;;;;;15.08;8.30;;;;;;;-3.30;61.28;99396.70;1681193;85;21216;-64
2021/03/12 05:47:55;;;;;;;14.65;9.10;;;;;;;-3.26;60.78;99390.78;1683617;84;21404;-64
2021/03/12 05:50:23;;;;;;;14.63;7.67;;;;;;;-3.21;61.07;99382.23;1668760;85;21169;-64
2021/03/12 05:52:51;;;;;;;14.95;8.38;;;;;;;-3.21;60.76;99383.05;1648430;86;21355;-63
2021/03/12 05:55:20;;;;;;;16.23;8.98;;;;;;;-3.12;60.70;99378.43;1677635;85;21174;-63
2021/03/12 05:57:48;;;;;;;15.65;8.23;;;;;;;-3.18;60.66;99377.84;1680566;85;21214;-63
2021/03/12 06:00:17;;;;;;;13.83;8.23;;;;;;;-3.25;60.82;99364.98;1680151;85;21126;-63
2021/03/12 06:02:44;;;;;;;14.68;8.20;;;;;;;-3.26;60.59;99358.04;1668903;85;21181;-63
2021/03/12 06:05:15;;;;;;;14.53;8.55;;;;;;;-3.26;60.85;99355.38;1678172;85;21176;-63
2021/03/12 06:07:43;;;;;;;14.13;8.10;;;;;;;-3.26;60.68;99346.06;1654915;86;21175;-63
2021/03/12 06:10:12;;;;;;;19.77;9.30;;;;;;;-3.21;60.83;99347.63;1650929;86;21179;-61
2021/03/12 06:12:42;;;;;;;16.12;8.68;;;;;;;-3.23;60.97;99335.02;1638956;87;21308;-65
2021/03/12 06:15:12;;;;;;;17.75;8.65;;;;;;;-3.27;60.60;99327.93;1639280;87;21205;-64
2021/03/12 06:17:46;;;;;;;15.45;8.28;;;;;;;-3.26;60.44;99329.55;1661368;86;21154;-62
2021/03/12 06:20:22;;;;;;;15.95;8.45;;;;;;;-3.28;60.21;99316.13;1650161;86;21646;-63
2021/03/12 06:22:56;;;;;;;15.55;8.18;;;;;;;-3.31;60.26;99331.16;1662721;86;21202;-65
2021/03/12 06:25:33;;;;;;;16.23;8.20;;;;;;;-3.31;60.17;99327.17;1683426;85;21636;-66
2021/03/12 06:28:18;;;;;;;16.10;8.30;;;;;;;-3.29;60.12;99319.80;1673034;86;21372;-66
2021/03/12 06:31:27;;;;;;;17.32;9.60;;;;;;;-3.21;60.30;99329.81;1814226;79;22969;-65
2021/03/12 06:34:14;;;;;;;16.48;9.63;;;;;;;-3.21;60.21;99336.47;1721034;83;21793;-65
2021/03/12 06:36:50;;;;;;;15.18;9.35;;;;;;;-3.09;60.21;99327.45;1763163;79;28302;-65
2021/03/12 06:39:21;;;;;;;13.90;8.90;;;;;;;-3.08;59.01;99319.75;1724095;82;21164;-65
2021/03/12 06:41:51;;;;;;;16.23;8.80;;;;;;;-2.94;58.78;99315.36;1671542;83;21875;-65
2021/03/12 06:44:35;;;;;;;16.95;9.00;;;;;;;-3.01;58.87;99293.98;1709869;82;21290;-65
2021/03/12 06:47:05;;;;;;;15.25;8.43;;;;;;;-2.95;59.29;99331.02;1704970;83;21165;-65
2021/03/12 06:49:34;;;;;;;15.58;8.55;;;;;;;-2.92;59.17;99316.80;1722462;82;21222;-65
2021/03/12 06:52:09;;;;;;;13.50;7.83;;;;;;;-2.92;58.88;99287.50;1672815;83;21263;-65
2021/03/12 06:54:44;;;;;;;17.52;8.90;;;;;;;-2.95;58.64;99302.55;1713202;82;21680;-65
2021/03/12 06:57:20;;;;;;;15.88;7.95;;;;;;;-2.85;58.87;99319.00;1689985;83;21251;-64
2021/03/12 07:00:07;;;;;;;16.90;8.48;;;;;;;-2.81;58.82;99312.77;1815606;77;23048;-63
2021/03/12 07:02:37;;;;;;;16.40;9.10;;;;;;;-2.84;58.60;99327.81;1792381;78;21125;-60
2021/03/12 07:05:29;;;;;;;14.35;7.22;;;;;;;-2.80;58.51;99317.88;1785492;78;21125;-60
2021/03/12 07:07:58;;;;;;;14.47;8.00;;;;;;;-2.89;58.55;99290.28;1628459;86;22171;-59
2021/03/12 07:10:40;;;;;;;14.78;8.08;;;;;;;-2.79;58.68;99310.72;1805134;79;23253;-62
2021/03/12 07:13:20;;;;;;;14.30;7.83;;;;;;;-2.83;58.86;99298.80;1771939;80;21169;-61
2021/03/12 07:15:53;;;;;;;17.27;8.58;;;;;;;-2.80;58.75;99281.92;1755575;82;21188;-61
2021/03/12 07:18:28;;;;;;;15.88;7.62;;;;;;;-2.78;58.85;99292.39;1746515;81;21145;-60
2021/03/12 07:20:58;;;;;;;17.70;8.00;;;;;;;-2.81;58.60;99285.63;1752904;80;21213;-61
2021/03/12 07:23:25;;;;;;;14.78;7.78;;;;;;;-2.82;58.59;99289.30;1740147;82;21287;-61
2021/03/12 07:25:53;;;;;;;15.88;7.03;;;;;;;-2.75;58.81;99291.48;1718117;83;21171;-60
2021/03/12 07:28:23;;;;;;;14.78;8.58;;;;;;;-2.78;58.46;99301.72;1738246;81;21202;-60
2021/03/12 07:30:59;;;;;;;16.35;7.97;;;;;;;-2.78;58.71;99314.53;1767515;79;22824;-60
2021/03/12 07:33:28;;;;;;;13.05;6.47;;;;;;;-2.80;58.60;99329.08;1734030;82;21287;-60
2021/03/12 07:35:59;;;;;;;13.32;7.22;;;;;;;-2.80;58.36;99313.09;1739677;82;21130;-61
2021/03/12 07:38:34;;;;;;;12.90;7.25;;;;;;;-2.83;58.62;99286.31;1728127;82;21156;-60
2021/03/12 07:41:07;;;;;;;13.45;7.17;;;;;;;-2.81;58.92;99289.63;1742909;82;21322;-60
2021/03/12 07:43:43;;;;;;;12.58;8.45;;;;;;;-2.77;59.06;99256.24;1778491;77;28806;-60
2021/03/12 07:46:16;;;;;;;15.68;8.10;;;;;;;-2.59;58.56;99271.19;1788662;78;21298;-61
2021/03/12 07:49:19;;;;;;;13.10;7.70;;;;;;;-2.39;58.09;99281.09;1754105;79;22678;-60
2021/03/12 07:51:58;;;;;;;14.78;7.50;;;;;;;-2.52;58.13;99280.54;1813068;79;23366;-60
2021/03/12 07:54:44;;;;;;;16.02;7.95;;;;;;;-2.64;58.29;99249.63;1758876;80;21189;-61
2021/03/12 07:57:39;;;;;;;13.58;7.78;;;;;;;-2.58;58.64;99276.80;1777330;80;21140;-60
2021/03/12 08:00:24;;;;;;;14.90;7.67;;;;;;;-2.68;58.61;99276.36;1778899;79;22840;-60
2021/03/12 08:03:30;;;;;;;15.50;6.95;;;;;;;-2.71;58.64;99302.58;1713845;82;21592;-61
2021/03/12 08:06:02;;;;;;;17.87;8.75;;;;;;;-2.70;59.00;99300.23;1688082;84;21136;-61
2021/03/12 08:08:41;;;;;;;14.73;7.95;;;;;;;-2.68;59.01;99287.52;1695282;83;21318;-62
2021/03/12 08:11:33;;;;;;;12.93;7.17;;;;;;;-2.62;59.06;99285.39;1767666;79;22684;-60
2021/03/12 08:14:19;;;;;;;14.87;7.50;;;;;;;-2.69;58.96;99276.54;1641132;85;21420;-61
2021/03/12 08:17:04;;;;;;;13.75;8.05;;;;;;;-2.61;59.02;99278.54;1815634;79;22885;-60
2021/03/12 08:19:37;;;;;;;13.70;7.60;;;;;;;-2.60;59.15;99274.04;1761358;80;21685;-62
2021/03/12 08:22:35;;;;;;;12.50;6.53;;;;;;;-2.63;58.76;99265.11;1723230;81;21614;-60
2021/03/12 08:25:06;;;;;;;13.15;7.55;;;;;;;-2.63;59.02;99253.13;1725471;81;21227;-59
2021/03/12 08:27:50;;;;;;;15.77;7.57;;;;;;;-2.59;59.31;99264.52;1701815;81;21121;-60
2021/03/12 08:30:35;;;;;;;14.53;8.18;;;;;;;-2.55;59.20;99257.75;1831427;77;23074;-60
2021/03/12 08:33:21;;;;;;;17.73;9.10;;;;;;;-2.50;59.52;99274.48;1788402;78;21146;-61
2021/03/12 08:35:59;;;;;;;17.12;9.35;;;;;;;-2.43;59.16;99264.67;1768666;79;22975;-61
2021/03/12 08:38:45;;;;;;;15.18;8.65;;;;;;;-2.44;59.22;99264.89;1710337;83;21352;-62
2021/03/12 08:41:27;;;;;;;16.15;8.55;;;;;;;-2.42;59.44;99220.18;1759879;79;22668;-61
2021/03/12 08:44:00;;;;;;;17.27;7.55;;;;;;;-2.46;59.16;99210.94;1715272;82;21168;-61
2021/03/12 08:46:42;;;;;;;17.27;7.92;;;;;;;-2.40;59.53;99220.28;1777165;79;23105;-61
2021/03/12 08:49:12;;;;;;;15.13;7.80;;;;;;;-2.40;59.49;99219.45;1734047;82;21307;-61
2021/03/12 08:51:40;;;;;;;15.53;7.20;;;;;;;-2.34;59.62;99200.02;1708638;83;21153;-61
2021/03/12 08:54:29;;;;;;;14.05;6.70;;;;;;;-2.37;59.38;99191.88;1750842;79;23447;-61
2021/03/12 08:57:00;;;;;;;14.83;6.80;;;;;;;-2.45;59.48;99183.27;1695634;83;21156;-60
2021/03/12 08:59:28;;;;;;;14.47;7.30;;;;;;;-2.47;59.69;99209.29;1591970;87;21191;-61
2021/03/12 09:01:58;;;;;;;12.05;7.15;;;;;;;-2.45;59.64;99205.93;1629366;86;21774;-61
2021/03/12 09:04:30;;;;;;;14.93;6.70;;;;;;;-2.45;59.90;99196.60;1647545;87;21177;-62
2021/03/12 09:07:01;;;;;;;14.13;7.40;;;;;;;-2.40;59.48;99204.80;1654443;85;21305;-61
2021/03/12 09:09:38;;;;;;;12.70;6.60;;;;;;;-2.33;59.78;99192.30;1751992;79;22996;-61
2021/03/12 09:12:16;;;;;;;14.03;7.60;;;;;;;-2.35;59.76;99187.19;1716514;83;21130;-62
2021/03/12 09:14:51;;;;;;;14.55;7.60;;;;;;;-2.37;59.92;99185.77;1721952;82;21292;-62
2021/03/12 09:17:21;;;;;;;13.13;6.40;;;;;;;-2.25;59.91;99171.62;1749255;82;21141;-62
2021/03/12 09:19:53;;;;;;;13.45;6.87;;;;;;;-2.29;59.78;99183.70;1731973;81;21137;-62
2021/03/12 09:22:24;;;;;;;14.73;7.10;;;;;;;-2.30;59.89;99195.92;1711949;82;21268;-61
2021/03/12 09:24:54;;;;;;;13.03;7.10;;;;;;;-2.35;59.69;99184.53;1735295;82;21608;-61
2021/03/12 09:27:40;;;;;;;13.53;7.28;;;;;;;-2.36;60.14;99190.88;1675354;85;21204;-62
2021/03/12 09:30:37;;;;;;;15.40;8.05;;;;;;;-2.34;60.38;99184.02;1657388;84;21202;-62
2021/03/12 09:33:40;;;;;;;12.37;6.65;;;;;;;-2.24;60.28;99175.11;1765636;79;22916;-61
2021/03/12 09:36:38;;;;;;;13.22;7.47;;;;;;;-2.36;60.65;99178.87;1687322;83;21315;-62
2021/03/12 09:39:24;;;;;;;11.20;6.35;;;;;;;-2.38;60.76;99166.78;1703062;83;21180;-62
2021/03/12 09:44:38;;;;;;;11.65;6.85;;;;;;;-2.38;62.15;99152.12;1753578;79;22616;-61
2021/03/12 09:47:09;;;;;;;12.88;7.50;;;;;;;-2.45;62.86;99169.95;1712679;83;21205;-63
2021/03/12 09:49:42;;;;;;;12.47;7.30;;;;;;;-2.44;63.08;99168.39;1715634;83;21186;-61
2021/03/12 09:52:16;;;;;;;13.85;7.62;;;;;;;-2.43;64.14;99162.05;1708628;82;21703;-62
2021/03/12 09:58:09;;;;;;;12.37;7.25;;;;;;;-2.44;65.30;99147.61;1817467;79;23367;-62
2021/03/12 10:00:39;;;;;;;16.48;7.33;;;;;;;-2.50;65.75;99149.22;1791026;80;21543;-62
2021/03/12 10:03:08;;;;;;;14.85;7.78;;;;;;;-2.47;66.44;99155.48;1775724;80;21262;-61
2021/03/12 10:05:48;;;;;;;16.05;8.15;;;;;;;-2.44;66.98;99141.73;1775851;79;22887;-62
2021/03/12 10:08:27;;;;;;;17.12;8.83;;;;;;;-2.47;67.67;99160.80;1742575;82;21177;-61
2021/03/12 10:11:13;;;;;;;14.13;8.18;;;;;;;-2.48;68.21;99160.52;1762233;79;23151;-61
2021/03/12 10:13:43;;;;;;;15.75;8.30;;;;;;;-2.51;68.71;99148.91;1697994;83;21181;-62
2021/03/12 10:16:22;;;;;;;16.67;8.23;;;;;;;-2.48;69.99;99158.36;1760422;79;22953;-62
2021/03/12 10:18:57;;;;;;;14.87;8.03;;;;;;;-2.58;70.41;99143.56;1707664;82;21608;-61
2021/03/12 10:21:25;;;;;;;18.40;8.33;;;;;;;-2.65;71.07;99153.89;1704453;83;21164;-62
2021/03/12 10:23:53;;;;;;;14.55;8.20;;;;;;;-2.73;72.34;99146.90;1722286;82;21185;-63
2021/03/12 10:26:22;;;;;;;16.48;8.05;;;;;;;-2.81;73.65;99135.62;1696225;83;21712;-64
2021/03/12 10:28:52;;;;;;;20.15;9.13;;;;;;;-2.83;74.75;99117.16;1707734;82;21172;-63
2021/03/12 10:31:20;;;;;;;15.70;9.30;;;;;;;-2.88;75.40;99138.78;1710396;83;21173;-62
2021/03/12 10:33:49;;;;;;;16.67;9.13;;;;;;;-2.83;76.33;99143.80;1722659;82;21184;-62
2021/03/12 10:36:18;;;;;;;20.45;8.80;;;;;;;-2.86;76.33;99137.55;1722632;83;21652;-62
2021/03/12 10:38:48;;;;;;;17.65;9.38;;;;;;;-2.85;75.97;99135.70;1722583;82;21157;-61
2021/03/12 10:41:20;;;;;;;18.80;8.43;;;;;;;-2.82;76.20;99134.80;1720387;83;21173;-61
2021/03/12 10:43:56;;;;;;;15.68;9.50;;;;;;;-2.80;76.14;99130.08;1708655;82;21165;-62
2021/03/12 10:46:24;;;;;;;15.15;8.65;;;;;;;-2.79;76.52;99122.41;1703484;83;21192;-62
2021/03/12 10:48:52;;;;;;;17.57;9.00;;;;;;;-2.85;77.19;99129.05;1713030;82;21322;-62
2021/03/12 10:51:20;;;;;;;17.52;9.85;;;;;;;-2.82;77.74;99136.12;1706440;83;21180;-63
2021/03/12 10:53:53;;;;;;;15.50;8.65;;;;;;;-2.84;78.09;99140.84;1710074;82;21604;-62
2021/03/12 10:56:23;;;;;;;18.02;9.25;;;;;;;-2.77;78.39;99134.20;1709766;83;21176;-62
2021/03/12 10:58:53;;;;;;;17.92;9.30;;;;;;;-2.72;78.95;99139.73;1712182;82;21699;-63
2021/03/12 11:01:25;;;;;;;16.45;8.88;;;;;;;-2.65;78.64;99141.39;1699990;83;21295;-62
2021/03/12 11:03:53;;;;;;;18.37;9.20;;;;;;;-2.68;78.77;99131.66;1716335;82;21190;-63
2021/03/12 11:06:24;;;;;;;14.73;9.50;;;;;;;-2.63;78.27;99122.05;1693619;84;21203;-63
2021/03/12 11:08:52;;;;;;;16.87;9.03;;;;;;;-2.65;78.23;99119.25;1693567;85;21717;-62
2021/03/12 11:11:21;;;;;;;16.60;9.48;;;;;;;-2.64;78.64;99122.23;1695722;83;21569;-62
2021/03/12 11:13:50;;;;;;;15.32;9.35;;;;;;;-2.65;78.75;99125.41;1638761;85;21337;-64
2021/03/12 11:16:18;;;;;;;14.93;9.18;;;;;;;-2.67;78.85;99120.81;1635564;86;21149;-64
2021/03/12 11:18:46;;;;;;;17.17;9.90;;;;;;;-2.60;79.09;99114.16;1684155;84;21237;-64
2021/03/12 11:21:14;;;;;;;16.50;10.18;;;;;;;-2.54;79.18;99108.83;1695885;84;21717;-64
2021/03/12 11:23:43;;;;;;;16.20;10.05;;;;;;;-2.47;78.89;99110.17;1689983;84;21618;-64
2021/03/12 11:26:12;;;;;;;14.03;8.75;;;;;;;-2.38;78.69;99103.63;1685700;84;21170;-64
2021/03/12 11:28:40;;;;;;;17.35;10.10;;;;;;;-2.35;78.19;99101.89;1686036;84;21190;-65
2021/03/12 11:31:08;;;;;;;16.05;10.53;;;;;;;-2.35;78.14;99091.22;1678455;85;21636;-64
2021/03/12 11:33:36;;;;;;;16.42;9.70;;;;;;;-2.38;78.19;99086.81;1678675;85;21608;-64
2021/03/12 11:36:07;;;;;;;17.80;9.73;;;;;;;-2.34;77.83;99077.39;1678908;85;21201;-65
2021/03/12 11:38:36;;;;;;;15.75;9.70;;;;;;;-2.32;78.02;99050.83;1676155;85;21153;-64
2021/03/12 11:41:05;;;;;;;16.27;9.50;;;;;;;-2.30;77.57;99074.62;1695418;84;21187;-65
2021/03/12 11:43:33;;;;;;;18.12;10.28;;;;;;;-2.30;77.84;99053.30;1697762;84;21627;-64
2021/03/12 11:46:00;;;;;;;17.25;10.68;;;;;;;-2.25;78.01;99062.30;1697919;84;21197;-64
2021/03/12 11:48:28;;;;;;;17.57;11.35;;;;;;;-2.18;78.01;99060.45;1696527;84;21171;-65
2021/03/12 11:50:57;;;;;;;19.95;11.53;;;;;;;-2.08;77.87;99054.18;1697968;84;21195;-65
2021/03/12 11:53:25;;;;;;;18.10;10.95;;;;;;;-1.99;77.70;99057.47;1697762;84;21742;-64
2021/03/12 11:55:52;;;;;;;21.52;11.78;;;;;;;-2.09;77.48;99049.86;1697941;84;21183;-64
2021/03/12 11:58:19;;;;;;;22.32;11.65;;;;;;;-2.05;77.69;99038.27;1695989;84;21228;-65